Time;durP1;ratioP1;P1;durP2;ratioP2;P2;SDS_P1;SDS_P2;PMS_P1;PMS_P2;Temp;Humidity;BMP_temperature;BMP_pressure;BME280_temperature;BME280_humidity;BME280_pressure;Samples;Min_cycle;Max_cycle;Signal;HPM_P1;HPM_P2
2023/01/14 00:04:32;;;;;;;4.33;1.23;;;;;;;4.45;100.00;96341.38;10450444;28;20196;-73
2023/01/14 00:09:32;;;;;;;5.67;1.37;;;;;;;4.43;100.00;96342.47;10468403;28;20333;-73
2023/01/14 00:14:33;;;;;;;7.13;1.50;;;;;;;4.33;100.00;96357.16;10462182;28;20195;-73
2023/01/14 00:19:33;;;;;;;5.80;1.50;;;;;;;4.40;100.00;96340.16;10449012;28;20220;-73
2023/01/14 00:24:34;;;;;;;9.70;1.77;;;;;;;4.28;100.00;96341.97;10449212;28;20343;-73
2023/01/14 00:29:35;;;;;;;5.73;1.60;;;;;;;4.23;100.00;96344.94;10449236;28;20205;-73
2023/01/14 00:34:38;;;;;;;5.77;1.53;;;;;;;4.20;100.00;96342.59;10449083;28;20191;-74
2023/01/14 00:39:39;;;;;;;5.17;1.20;;;;;;;4.24;100.00;96341.41;10445505;28;20330;-73
2023/01/14 00:44:39;;;;;;;9.03;1.90;;;;;;;4.20;100.00;96337.41;10446627;28;20194;-73
2023/01/14 00:49:39;;;;;;;3.80;1.57;;;;;;;4.04;100.00;96348.22;10447186;28;20238;-73
2023/01/14 00:54:40;;;;;;;5.40;1.47;;;;;;;4.00;100.00;96348.59;10446338;28;20191;-73
2023/01/14 00:59:40;;;;;;;7.07;1.90;;;;;;;3.80;100.00;96363.13;10447957;28;20306;-73
2023/01/14 01:04:40;;;;;;;4.43;1.33;;;;;;;3.88;100.00;96353.81;10430537;28;20207;-73
2023/01/14 01:09:42;;;;;;;8.23;1.83;;;;;;;3.85;100.00;96361.03;10462234;28;20192;-73
2023/01/14 01:14:42;;;;;;;5.27;1.30;;;;;;;3.81;100.00;96367.38;10474093;28;20257;-73
2023/01/14 01:19:43;;;;;;;8.20;1.37;;;;;;;3.82;100.00;96364.66;10488709;28;20264;-73
2023/01/14 01:24:43;;;;;;;8.70;1.73;;;;;;;3.78;100.00;96359.88;10487660;28;20179;-73
2023/01/14 01:29:43;;;;;;;3.33;1.40;;;;;;;3.73;100.00;96368.00;10487530;28;20191;-74
2023/01/14 01:34:44;;;;;;;6.37;1.53;;;;;;;3.71;100.00;96364.72;10488520;28;20645;-74
2023/01/14 01:39:44;;;;;;;4.73;1.50;;;;;;;3.68;100.00;96367.56;10486998;28;20805;-74
2023/01/14 01:44:48;;;;;;;6.60;1.93;;;;;;;3.55;100.00;96375.47;10487455;28;20643;-74
2023/01/14 01:49:48;;;;;;;7.37;1.87;;;;;;;3.66;100.00;96387.56;10489956;28;20187;-74
2023/01/14 01:54:52;;;;;;;4.20;1.30;;;;;;;3.62;100.00;96383.59;10495055;28;20195;-74
2023/01/14 01:59:56;;;;;;;9.20;1.60;;;;;;;3.61;100.00;96387.09;10494777;28;20599;-73
2023/01/14 02:04:56;;;;;;;3.53;1.50;;;;;;;3.67;100.00;96396.97;10493773;28;20261;-73
2023/01/14 02:10:00;;;;;;;9.73;1.90;;;;;;;3.73;100.00;96386.94;10493541;28;20201;-73
2023/01/14 02:15:27;;;;;;;4.90;1.60;;;;;;;3.86;100.00;96385.97;10452467;28;20513;-74
2023/01/14 02:20:36;;;;;;;7.77;1.50;;;;;;;3.95;100.00;96382.66;10435475;28;20212;-74
2023/01/14 02:26:08;;;;;;;4.73;1.30;;;;;;;4.00;100.00;96392.66;10453359;28;20285;-73
2023/01/14 02:31:12;;;;;;;4.63;1.40;;;;;;;4.08;98.36;96391.06;10452349;28;20270;-73
2023/01/14 02:36:13;;;;;;;4.43;1.23;;;;;;;3.98;98.33;96373.81;10450844;28;20219;-74
2023/01/14 02:44:06;;;;;;;6.47;1.40;;;;;;;4.00;97.21;96401.25;10451376;28;20362;-74
2023/01/14 02:46:46;;;;;;;4.63;1.17;;;;;;;4.05;96.95;96400.88;10448467;28;20199;-75
2023/01/14 02:51:48;;;;;;;4.67;1.60;;;;;;;4.08;95.99;96401.44;10451070;28;20187;-74
2023/01/14 02:56:49;;;;;;;3.50;1.20;;;;;;;4.06;95.46;96399.94;10452154;28;20223;-74
2023/01/14 03:02:07;;;;;;;3.60;1.20;;;;;;;4.03;95.71;96421.75;10450686;28;20188;-74
2023/01/14 03:07:22;;;;;;;4.33;1.40;;;;;;;4.03;95.76;96416.56;10451356;28;20275;-74
2023/01/14 03:12:44;;;;;;;5.47;1.30;;;;;;;3.93;96.11;96424.22;10491642;28;20550;-74
2023/01/14 03:17:57;;;;;;;4.73;1.23;;;;;;;3.99;96.96;96427.28;10474157;28;20222;-75
2023/01/14 03:23:00;;;;;;;4.33;1.47;;;;;;;3.90;96.97;96440.00;10490888;28;20647;-75
2023/01/14 03:28:02;;;;;;;4.23;1.43;;;;;;;4.00;96.96;96445.31;10474801;28;20542;-74
2023/01/14 03:33:09;;;;;;;3.90;1.00;;;;;;;4.08;97.21;96440.31;10473462;28;20193;-74
2023/01/14 03:38:17;;;;;;;3.33;1.27;;;;;;;4.06;97.01;96439.63;10486631;28;20228;-74
2023/01/14 03:43:25;;;;;;;6.90;1.30;;;;;;;3.97;97.64;96444.75;10448991;28;20192;-74
2023/01/14 03:48:25;;;;;;;6.20;1.10;;;;;;;3.93;98.60;96459.69;10449377;28;20657;-74
2023/01/14 03:53:33;;;;;;;3.03;1.33;;;;;;;3.94;98.29;96445.81;10448775;28;20188;-74
2023/01/14 03:58:53;;;;;;;7.40;1.40;;;;;;;3.89;98.48;96446.16;10450378;28;20302;-74
2023/01/14 04:03:54;;;;;;;5.33;1.30;;;;;;;3.77;98.82;96454.91;10436535;28;20210;-74
2023/01/14 04:08:56;;;;;;;5.10;1.20;;;;;;;3.72;99.26;96457.00;10445289;28;20531;-74
2023/01/14 04:19:15;;;;;;;6.60;1.43;;;;;;;3.67;99.45;96461.75;10442438;28;20215;-73
2023/01/14 04:24:15;;;;;;;7.70;1.80;;;;;;;3.70;99.05;96469.28;10441922;28;20589;-74
2023/01/14 04:29:15;;;;;;;4.40;1.33;;;;;;;3.70;99.30;96472.69;10442185;28;20586;-74
2023/01/14 04:34:16;;;;;;;4.77;1.27;;;;;;;3.88;98.71;96480.78;10440076;28;20758;-73
2023/01/14 04:39:16;;;;;;;5.53;1.80;;;;;;;4.01;98.34;96472.88;10442046;28;20727;-74
2023/01/14 04:44:17;;;;;;;2.57;1.20;;;;;;;4.01;97.85;96483.25;10441445;28;20203;-73
2023/01/14 04:49:17;;;;;;;6.57;1.57;;;;;;;4.03;97.90;96470.16;10441084;28;20188;-74
2023/01/14 04:54:17;;;;;;;5.30;1.27;;;;;;;4.07;97.73;96484.50;10440648;28;20206;-74
2023/01/14 04:59:18;;;;;;;9.63;1.80;;;;;;;3.86;98.39;96487.88;10440379;28;20310;-74
2023/01/14 05:04:18;;;;;;;8.63;1.50;;;;;;;3.76;98.97;96489.53;10445954;28;20207;-74
2023/01/14 05:09:18;;;;;;;6.37;1.67;;;;;;;3.58;99.45;96496.94;10456108;28;20184;-73
2023/01/14 05:14:19;;;;;;;3.97;1.23;;;;;;;3.54;100.00;96491.19;10448165;28;20254;-74
2023/01/14 05:19:19;;;;;;;7.87;1.40;;;;;;;3.52;100.00;96497.41;10447618;28;20211;-74
2023/01/14 05:24:19;;;;;;;6.53;1.70;;;;;;;3.45;100.00;96499.66;10450875;28;20188;-74
2023/01/14 05:29:20;;;;;;;8.23;2.07;;;;;;;3.38;100.00;96503.66;10455948;28;20184;-73
2023/01/14 05:34:20;;;;;;;13.10;5.23;;;;;;;3.43;100.00;96509.31;10455624;28;20287;-74
2023/01/14 05:39:20;;;;;;;10.63;2.40;;;;;;;3.44;100.00;96492.84;10455986;28;20224;-75
2023/01/14 05:49:40;;;;;;;9.93;3.57;;;;;;;3.56;100.00;96512.59;10454935;28;20199;-74
2023/01/14 05:54:40;;;;;;;10.97;2.30;;;;;;;3.53;100.00;96517.22;10455186;28;20188;-75
2023/01/14 05:59:41;;;;;;;7.27;3.10;;;;;;;3.61;100.00;96509.66;10454450;28;20220;-73
2023/01/14 06:10:02;;;;;;;8.93;3.37;;;;;;;3.55;100.00;96517.91;10465933;28;20191;-75
2023/01/14 06:15:03;;;;;;;4.67;1.53;;;;;;;3.53;100.00;96520.59;10453888;28;20219;-74
2023/01/14 06:20:05;;;;;;;5.13;1.47;;;;;;;3.42;99.42;96517.22;10452838;28;20212;-74
2023/01/14 06:25:06;;;;;;;8.03;1.80;;;;;;;3.35;99.69;96525.44;10454267;28;20577;-74
2023/01/14 06:30:07;;;;;;;7.73;1.70;;;;;;;3.29;99.09;96527.66;10451418;28;20199;-74
2023/01/14 06:35:07;;;;;;;3.73;1.33;;;;;;;3.17;99.83;96530.25;10453660;28;20200;-74
2023/01/14 06:40:10;;;;;;;4.63;1.40;;;;;;;3.09;99.86;96517.03;10452947;28;20235;-74
2023/01/14 06:45:11;;;;;;;9.10;2.23;;;;;;;2.94;100.00;96520.75;10452217;28;20246;-74
2023/01/14 06:50:11;;;;;;;6.20;1.57;;;;;;;3.07;100.00;96523.28;10451603;28;20278;-74
2023/01/14 06:55:12;;;;;;;6.37;1.50;;;;;;;3.04;99.98;96519.97;10451326;28;20640;-74
2023/01/14 07:00:13;;;;;;;6.80;1.67;;;;;;;3.03;99.79;96523.50;10452492;28;20219;-75
2023/01/14 07:05:15;;;;;;;4.80;1.40;;;;;;;2.93;99.98;96517.38;10452508;28;20196;-74
2023/01/14 07:10:17;;;;;;;7.97;1.97;;;;;;;2.83;100.00;96525.00;10464961;28;20287;-74
2023/01/14 07:15:19;;;;;;;7.07;1.70;;;;;;;2.75;100.00;96524.72;10443900;28;20191;-74
2023/01/14 07:20:19;;;;;;;11.83;7.10;;;;;;;2.70;100.00;96521.66;10450259;28;20240;-74
2023/01/14 07:25:20;;;;;;;8.40;2.43;;;;;;;2.67;100.00;96521.88;10450057;28;20282;-75
2023/01/14 07:30:20;;;;;;;5.93;1.70;;;;;;;2.71;100.00;96525.91;10450223;28;20469;-74
2023/01/14 07:35:20;;;;;;;237.33;83.50;;;;;;;2.77;100.00;96528.03;10450980;28;20237;-74
2023/01/14 07:40:22;;;;;;;14.73;6.87;;;;;;;2.79;100.00;96531.31;10450341;28;20310;-74
2023/01/14 07:45:22;;;;;;;4.27;1.93;;;;;;;2.82;100.00;96538.03;10434193;28;20184;-74
2023/01/14 07:50:23;;;;;;;13.53;2.97;;;;;;;2.82;100.00;96533.69;10432076;28;20177;-74
2023/01/14 07:55:24;;;;;;;7.07;2.03;;;;;;;2.86;100.00;96531.69;10428144;28;20223;-74
2023/01/14 08:00:24;;;;;;;6.83;1.67;;;;;;;2.98;100.00;96514.44;10442413;28;20219;-74
2023/01/14 08:05:25;;;;;;;7.00;1.90;;;;;;;3.48;100.00;96512.38;10481256;28;20561;-74
2023/01/14 08:10:25;;;;;;;4.77;1.63;;;;;;;4.00;95.85;96491.97;10464228;28;20766;-74
2023/01/14 08:15:25;;;;;;;6.13;1.60;;;;;;;4.21;93.09;96470.44;10449078;28;20203;-74
2023/01/14 08:20:27;;;;;;;6.57;1.33;;;;;;;4.61;90.41;96444.72;10456619;28;20217;-74
2023/01/14 08:25:28;;;;;;;3.90;1.30;;;;;;;4.59;88.90;96432.81;10490719;28;20264;-74
2023/01/14 08:30:28;;;;;;;12.77;2.20;;;;;;;4.75;88.07;96422.00;10490339;28;20248;-74
2023/01/14 08:35:28;;;;;;;4.43;1.57;;;;;;;4.65;86.82;96419.31;10491123;28;20195;-74
2023/01/14 08:40:29;;;;;;;8.53;3.50;;;;;;;5.00;86.58;96421.56;10490005;28;20242;-74
2023/01/14 08:45:29;;;;;;;8.20;2.83;;;;;;;4.94;85.53;96418.69;10459778;28;20270;-74
2023/01/14 08:50:30;;;;;;;10.23;5.87;;;;;;;4.96;85.01;96404.63;10490439;28;20607;-74
2023/01/14 08:55:30;;;;;;;15.90;7.03;;;;;;;5.22;84.34;96388.59;10489774;28;20610;-74
2023/01/14 09:00:30;;;;;;;6.47;1.83;;;;;;;5.62;83.26;96376.53;10493095;28;20573;-75
2023/01/14 09:05:31;;;;;;;4.30;1.70;;;;;;;5.71;81.74;96392.16;10496853;28;20778;-74
2023/01/14 09:21:10;;;;;;;9.10;2.30;;;;;;;5.27;79.97;96367.47;10453472;28;20219;-75
2023/01/14 09:26:10;;;;;;;10.00;1.90;;;;;;;5.66;79.55;96378.75;10455045;28;20219;-75
2023/01/14 09:31:10;;;;;;;5.53;1.70;;;;;;;5.92;79.33;96362.63;10454296;28;20676;-75
2023/01/14 09:36:11;;;;;;;9.10;2.00;;;;;;;5.84;78.49;96368.50;10455696;28;20192;-74
2023/01/14 09:47:29;;;;;;;8.60;2.30;;;;;;;5.89;78.18;96350.72;10427396;28;20196;-75
2023/01/14 09:52:49;;;;;;;7.97;2.40;;;;;;;4.97;78.86;96348.34;10413194;28;20208;-75
2023/01/14 09:57:55;;;;;;;6.27;1.70;;;;;;;5.47;78.29;96345.75;10408379;28;20550;-75
2023/01/14 10:03:20;;;;;;;10.40;2.20;;;;;;;5.81;76.38;96313.38;10431425;28;20196;-75
2023/01/14 10:09:26;;;;;;;5.37;1.57;;;;;;;6.64;74.26;96279.06;10449360;28;20249;-73
2023/01/14 10:14:40;;;;;;;8.97;1.80;;;;;;;5.57;75.64;96303.38;10414324;28;20215;-73
2023/01/14 10:19:47;;;;;;;6.57;1.83;;;;;;;5.42;76.90;96310.75;10438723;28;20212;-74
2023/01/14 10:24:47;;;;;;;14.63;2.97;;;;;;;5.32;77.54;96311.53;10453678;28;20184;-74
2023/01/14 10:29:48;;;;;;;6.70;3.03;;;;;;;5.42;75.84;96269.19;10452991;28;20557;-74
2023/01/14 10:34:57;;;;;;;14.83;3.93;;;;;;;5.77;76.16;96263.44;10454266;28;20195;-74
2023/01/14 10:39:57;;;;;;;3.70;2.00;;;;;;;6.55;73.45;96224.28;10437334;28;20305;-74
2023/01/14 10:44:59;;;;;;;8.87;1.97;;;;;;;6.82;73.79;96227.88;10442470;28;20739;-74
2023/01/14 10:50:05;;;;;;;9.43;2.33;;;;;;;6.15;75.24;96237.56;10412800;28;20584;-73
2023/01/14 10:55:15;;;;;;;6.60;1.97;;;;;;;6.25;74.31;96213.16;10430372;28;20675;-74
2023/01/14 11:00:31;;;;;;;5.83;1.63;;;;;;;6.16;74.18;96195.81;10450182;28;20254;-74
2023/01/14 11:05:37;;;;;;;6.30;2.07;;;;;;;6.34;74.05;96216.72;10450942;28;20195;-74
2023/01/14 11:10:37;;;;;;;7.57;2.13;;;;;;;6.30;74.56;96198.94;10451913;28;20184;-74
2023/01/14 11:15:39;;;;;;;6.77;1.60;;;;;;;6.11;73.84;96166.81;10451639;28;20195;-74
2023/01/14 11:20:40;;;;;;;6.47;2.10;;;;;;;6.47;73.56;96159.13;10451234;28;20228;-74
2023/01/14 11:25:41;;;;;;;4.90;1.80;;;;;;;6.62;72.57;96148.25;10451077;28;20648;-74
2023/01/14 11:30:43;;;;;;;11.03;2.03;;;;;;;6.24;72.75;96163.91;10450593;28;20200;-74
2023/01/14 11:35:49;;;;;;;7.87;1.80;;;;;;;6.32;73.44;96147.56;10450973;28;20199;-74
2023/01/14 11:46:12;;;;;;;5.40;1.60;;;;;;;6.64;73.90;96143.72;10451399;28;20215;-74
2023/01/14 11:51:18;;;;;;;6.33;2.23;;;;;;;6.66;74.72;96137.41;10451258;28;20196;-75
2023/01/14 11:56:30;;;;;;;6.83;1.80;;;;;;;6.03;77.48;96167.53;10451258;28;20196;-74
2023/01/14 12:01:39;;;;;;;9.87;2.13;;;;;;;5.92;77.70;96151.25;10448778;28;20670;-73
2023/01/14 12:06:47;;;;;;;7.63;1.57;;;;;;;6.01;77.98;96135.63;10449345;28;20183;-74
2023/01/14 12:11:55;;;;;;;5.13;1.83;;;;;;;5.60;77.79;96118.63;10449292;28;20208;-74
2023/01/14 12:17:27;;;;;;;4.93;1.73;;;;;;;5.47;79.24;96124.13;10449016;28;20235;-74
2023/01/14 12:22:38;;;;;;;7.60;1.67;;;;;;;5.32;80.39;96121.94;10448261;28;20574;-74
2023/01/14 12:28:10;;;;;;;10.50;2.77;;;;;;;5.25;81.24;96131.25;10450265;28;20190;-74
2023/01/14 12:33:35;;;;;;;18.07;6.63;;;;;;;5.27;82.19;96108.56;10431315;28;20207;-74
2023/01/14 12:49:25;;;;;;;6.33;2.33;;;;;;;5.22;83.51;96092.56;10448410;28;20187;-74
2023/01/14 12:54:30;;;;;;;5.20;2.00;;;;;;;5.19;84.03;96090.25;10449905;28;20506;-74
2023/01/14 12:59:38;;;;;;;9.40;2.00;;;;;;;5.18;84.70;96073.03;10448538;28;20220;-74
2023/01/14 13:04:50;;;;;;;8.10;2.70;;;;;;;5.12;85.17;96052.84;10449028;28;20282;-74
2023/01/14 13:10:00;;;;;;;8.43;1.70;;;;;;;5.10;86.07;96070.31;10447307;28;20195;-74
2023/01/14 13:15:23;;;;;;;10.10;2.07;;;;;;;5.09;86.58;96048.72;10447392;28;20195;-73
2023/01/14 13:20:30;;;;;;;9.03;1.83;;;;;;;5.18;86.36;96040.09;10447705;28;20216;-74
2023/01/14 13:25:32;;;;;;;10.53;2.10;;;;;;;5.24;85.76;96024.91;10448700;28;20195;-73
2023/01/14 13:30:32;;;;;;;6.80;1.40;;;;;;;5.33;85.81;96018.91;10448310;28;20192;-74
2023/01/14 13:35:34;;;;;;;12.50;2.27;;;;;;;5.35;85.84;96007.41;10448576;28;20196;-74
2023/01/14 13:40:36;;;;;;;11.27;2.27;;;;;;;5.32;85.41;96005.06;10448528;28;20262;-74
2023/01/14 13:45:39;;;;;;;5.67;2.00;;;;;;;5.36;84.90;95998.66;10449673;28;20271;-73
2023/01/14 13:50:40;;;;;;;14.47;2.30;;;;;;;5.23;88.36;96018.09;10456369;28;20195;-74
2023/01/14 13:55:49;;;;;;;10.70;2.03;;;;;;;5.05;91.82;96020.59;10454465;28;20718;-75
2023/01/14 14:01:25;;;;;;;10.57;2.63;;;;;;;4.93;93.64;96054.50;10454435;28;20269;-75
2023/01/14 14:06:29;;;;;;;7.13;1.87;;;;;;;4.95;94.45;96011.03;10455212;28;20537;-74
2023/01/14 14:11:38;;;;;;;8.37;2.90;;;;;;;4.86;96.29;95995.50;10455147;28;20214;-74
2023/01/14 14:17:01;;;;;;;6.90;2.60;;;;;;;4.95;96.18;95968.69;10454934;28;20204;-74
2023/01/14 14:22:18;;;;;;;10.73;3.13;;;;;;;4.97;96.09;95933.84;10453941;28;20195;-75
2023/01/14 14:27:27;;;;;;;8.13;3.23;;;;;;;4.94;96.02;95925.53;10454722;28;20229;-74
2023/01/14 14:32:27;;;;;;;10.00;3.73;;;;;;;4.92;96.10;95917.06;10453272;28;20192;-74
2023/01/14 14:37:33;;;;;;;12.10;2.43;;;;;;;4.89;96.42;95914.75;10452940;28;20251;-75
2023/01/14 14:42:39;;;;;;;9.60;2.20;;;;;;;4.88;96.56;95905.34;10436442;28;20563;-74
2023/01/14 14:47:42;;;;;;;13.97;1.80;;;;;;;4.84;96.43;95884.03;10454527;28;20248;-74
2023/01/14 14:52:42;;;;;;;7.00;2.13;;;;;;;4.85;96.05;95875.28;10451976;28;20675;-74
2023/01/14 14:57:43;;;;;;;5.33;1.77;;;;;;;4.85;95.86;95890.03;10452585;28;20223;-74
2023/01/14 15:03:03;;;;;;;5.90;2.37;;;;;;;4.82;95.73;95849.63;10452823;28;20283;-74
2023/01/14 15:08:13;;;;;;;8.27;2.17;;;;;;;4.82;96.50;95836.66;10434773;28;20569;-74
2023/01/14 15:13:26;;;;;;;6.73;1.80;;;;;;;4.85;96.38;95853.72;10451274;28;20187;-75
2023/01/14 15:18:41;;;;;;;8.03;1.83;;;;;;;4.87;96.59;95842.25;10451833;28;20696;-74
2023/01/14 15:23:46;;;;;;;3.70;1.90;;;;;;;4.83;96.60;95831.31;10450564;28;20195;-74
2023/01/14 15:28:47;;;;;;;8.90;2.93;;;;;;;4.88;95.79;95830.06;10451618;28;20594;-74
2023/01/14 15:34:01;;;;;;;5.90;2.00;;;;;;;4.83;97.05;95804.56;10433831;28;20254;-74
2023/01/14 15:39:02;;;;;;;59.97;25.77;;;;;;;4.80;97.13;95825.59;10450131;28;20267;-73
2023/01/14 15:44:04;;;;;;;13.67;5.83;;;;;;;4.82;97.88;95813.28;10450189;28;20199;-74
2023/01/14 15:49:10;;;;;;;8.10;4.17;;;;;;;4.89;97.04;95803.97;10408445;28;20204;-73
2023/01/14 15:54:36;;;;;;;6.13;2.67;;;;;;;4.83;97.91;95807.16;10408442;28;20196;-74
2023/01/14 15:59:37;;;;;;;10.23;2.50;;;;;;;4.86;98.23;95806.06;10409581;28;20229;-74
2023/01/14 16:04:37;;;;;;;9.10;2.57;;;;;;;4.85;98.46;95823.38;10409699;28;20196;-74
2023/01/14 16:09:37;;;;;;;2.80;2.20;;;;;;;4.93;98.54;95796.72;10408079;28;20230;-74
2023/01/14 16:14:38;;;;;;;14.37;2.70;;;;;;;4.98;98.79;95817.88;10409505;28;20188;-74
2023/01/14 16:19:39;;;;;;;7.50;2.40;;;;;;;4.98;99.80;95804.91;10409629;28;20256;-74
2023/01/14 16:24:44;;;;;;;5.97;2.10;;;;;;;5.03;99.70;95817.44;10410520;28;20635;-74
2023/01/14 16:29:44;;;;;;;5.13;1.93;;;;;;;4.97;100.00;95804.06;10410051;28;20645;-74
2023/01/14 16:34:45;;;;;;;4.07;2.13;;;;;;;4.85;100.00;95784.47;10410498;28;20195;-74
2023/01/14 16:39:45;;;;;;;6.13;2.20;;;;;;;4.78;100.00;95754.88;10409312;28;20240;-75
2023/01/14 16:44:46;;;;;;;6.97;2.73;;;;;;;4.76;100.00;95749.84;10409840;28;20184;-74
2023/01/14 16:49:46;;;;;;;7.03;2.80;;;;;;;4.85;100.00;95734.34;10408347;28;20969;-74
2023/01/14 16:54:46;;;;;;;6.40;2.00;;;;;;;4.88;100.00;95715.91;10409718;28;20552;-74
2023/01/14 16:59:47;;;;;;;9.77;2.67;;;;;;;4.74;100.00;95675.69;10409300;28;20531;-74
2023/01/14 17:04:47;;;;;;;8.43;2.70;;;;;;;4.75;100.00;95651.38;10409288;28;20722;-73
2023/01/14 17:09:48;;;;;;;4.43;2.47;;;;;;;4.70;100.00;95633.66;10407745;28;20999;-72
2023/01/14 17:14:48;;;;;;;6.87;1.97;;;;;;;4.74;100.00;95622.00;10407971;28;20279;-74
2023/01/14 17:19:48;;;;;;;5.13;2.23;;;;;;;4.80;100.00;95618.03;10410677;28;20228;-75
2023/01/14 17:24:49;;;;;;;8.47;2.80;;;;;;;4.87;100.00;95634.66;10417413;28;20189;-74
2023/01/14 17:29:49;;;;;;;6.10;2.30;;;;;;;4.93;100.00;95615.88;10416873;28;20185;-75
2023/01/14 17:34:49;;;;;;;5.37;2.27;;;;;;;4.97;100.00;95616.41;10416792;28;20192;-74
2023/01/14 17:39:50;;;;;;;10.30;2.67;;;;;;;4.98;100.00;95597.28;10416338;28;20363;-75
2023/01/14 17:44:50;;;;;;;8.80;2.67;;;;;;;5.05;100.00;95571.53;10416465;28;20200;-74
2023/01/14 17:49:51;;;;;;;9.17;2.40;;;;;;;5.10;100.00;95590.03;10415937;28;20180;-75
2023/01/14 17:54:51;;;;;;;5.83;2.30;;;;;;;5.12;100.00;95551.78;10414767;28;20191;-74
2023/01/14 17:59:52;;;;;;;5.00;1.97;;;;;;;4.97;100.00;95565.28;10415470;28;20224;-75
2023/01/14 18:04:52;;;;;;;4.07;1.90;;;;;;;4.87;100.00;95623.44;10414562;28;20199;-75
2023/01/14 18:09:53;;;;;;;6.40;2.00;;;;;;;4.61;100.00;95578.28;10414076;28;20284;-74
2023/01/14 18:14:53;;;;;;;7.80;4.03;;;;;;;4.51;100.00;95592.28;10415743;28;20241;-74
2023/01/14 18:19:54;;;;;;;7.27;3.47;;;;;;;4.50;100.00;95581.09;10413492;28;20228;-74
2023/01/14 18:24:54;;;;;;;8.90;2.73;;;;;;;4.39;100.00;95599.44;10414985;28;20237;-75
2023/01/14 18:29:54;;;;;;;5.33;2.00;;;;;;;4.35;100.00;95598.09;10414663;28;20299;-75
2023/01/14 18:34:55;;;;;;;4.07;2.20;;;;;;;4.26;100.00;95573.88;10413064;28;20196;-74
2023/01/14 18:39:55;;;;;;;7.53;2.30;;;;;;;4.17;100.00;95554.03;10396486;28;20289;-75
2023/01/14 18:44:57;;;;;;;3.73;2.13;;;;;;;4.20;100.00;95557.13;10412775;28;20196;-76
2023/01/14 18:49:58;;;;;;;7.00;2.67;;;;;;;4.08;100.00;95542.75;10413700;28;20271;-75
2023/01/14 18:54:58;;;;;;;4.27;1.70;;;;;;;4.14;100.00;95544.75;10413515;28;20192;-75
2023/01/14 18:59:58;;;;;;;5.37;2.27;;;;;;;4.05;100.00;95489.41;10413387;28;20222;-75
2023/01/14 19:04:59;;;;;;;3.30;1.97;;;;;;;4.07;100.00;95515.19;10411805;28;20196;-75
2023/01/14 19:09:59;;;;;;;6.60;2.80;;;;;;;3.95;100.00;95526.72;10412992;28;20279;-76
2023/01/14 19:15:00;;;;;;;6.23;2.53;;;;;;;4.08;100.00;95506.47;10411912;28;20200;-75
2023/01/14 19:20:00;;;;;;;9.87;3.63;;;;;;;4.16;100.00;95500.53;10411190;28;20324;-75
2023/01/14 19:25:00;;;;;;;4.23;1.73;;;;;;;4.24;100.00;95501.44;10412896;28;20189;-75
2023/01/14 19:30:01;;;;;;;3.53;1.53;;;;;;;4.27;100.00;95485.59;10411847;28;20193;-76
2023/01/14 19:35:01;;;;;;;4.50;2.20;;;;;;;4.27;100.00;95480.41;10412495;28;20189;-75
2023/01/14 19:40:02;;;;;;;5.57;2.30;;;;;;;4.15;100.00;95478.16;10412076;28;20232;-75
2023/01/14 19:45:03;;;;;;;3.37;1.90;;;;;;;4.17;100.00;95461.53;10410962;28;20196;-75
2023/01/14 19:50:03;;;;;;;3.70;1.70;;;;;;;4.26;100.00;95460.63;10411571;28;20191;-75
2023/01/14 19:55:04;;;;;;;3.97;2.10;;;;;;;4.32;100.00;95432.47;10411504;28;20192;-75
2023/01/14 20:00:05;;;;;;;5.90;1.93;;;;;;;4.22;100.00;95446.31;10409978;28;20274;-75
2023/01/14 20:05:12;;;;;;;3.73;1.90;;;;;;;4.11;100.00;95429.22;10411686;28;20517;-74
2023/01/14 20:10:12;;;;;;;3.00;1.70;;;;;;;4.21;100.00;95430.91;10417734;28;20185;-75
2023/01/14 20:15:13;;;;;;;1.83;1.30;;;;;;;4.34;100.00;95446.13;10413047;28;20192;-75
2023/01/14 20:20:14;;;;;;;3.97;2.03;;;;;;;4.39;100.00;95397.22;10411038;28;20854;-74
2023/01/14 20:25:14;;;;;;;3.60;1.93;;;;;;;4.49;100.00;95405.72;10411179;28;20213;-75
2023/01/14 20:30:15;;;;;;;2.13;1.33;;;;;;;4.38;100.00;95405.94;10408957;28;20689;-75
2023/01/14 20:35:15;;;;;;;3.37;1.43;;;;;;;4.51;100.00;95393.41;10410431;28;20215;-74
2023/01/14 20:40:16;;;;;;;3.27;1.73;;;;;;;4.47;100.00;95379.09;10410003;28;20259;-74
2023/01/14 20:45:16;;;;;;;4.13;2.30;;;;;;;4.55;100.00;95368.81;10409637;28;20238;-74
2023/01/14 20:50:16;;;;;;;5.30;1.47;;;;;;;4.52;100.00;95350.13;10409936;28;20188;-75
2023/01/14 20:55:17;;;;;;;1.33;1.07;;;;;;;4.54;100.00;95333.47;10409823;28;20279;-74
2023/01/14 21:00:17;;;;;;;3.17;1.67;;;;;;;4.54;100.00;95366.38;10407999;28;20236;-75
2023/01/14 21:05:18;;;;;;;5.27;2.27;;;;;;;4.47;100.00;95343.63;10410018;28;20188;-74
2023/01/14 21:10:18;;;;;;;3.17;2.33;;;;;;;4.53;100.00;95349.97;10432924;28;20660;-74
2023/01/14 21:25:56;;;;;;;3.43;1.70;;;;;;;4.76;100.00;95326.13;10448127;28;20188;-74
2023/01/14 21:30:56;;;;;;;2.23;0.97;;;;;;;4.80;100.00;95330.84;10449277;28;20848;-73
2023/01/14 21:35:57;;;;;;;2.43;1.10;;;;;;;4.80;100.00;95320.47;10432103;28;20244;-74
2023/01/14 21:46:16;;;;;;;1.93;1.40;;;;;;;4.79;100.00;95326.63;10450022;28;20238;-74
2023/01/14 21:51:16;;;;;;;1.23;1.13;;;;;;;4.83;100.00;95320.16;10450278;28;20184;-74
2023/01/14 21:56:18;;;;;;;1.17;1.07;;;;;;;4.93;100.00;95316.63;10449582;28;20195;-73
2023/01/14 22:01:18;;;;;;;1.30;1.20;;;;;;;5.00;100.00;95321.03;10449812;28;20257;-74
2023/01/14 22:06:19;;;;;;;2.10;1.30;;;;;;;5.10;100.00;95302.75;10451619;28;20195;-74
2023/01/14 22:11:19;;;;;;;1.60;1.10;;;;;;;5.03;100.00;95295.75;10430696;28;20255;-75
2023/01/14 22:16:19;;;;;;;1.50;1.23;;;;;;;5.04;100.00;95284.38;10415384;28;20228;-73
2023/01/14 22:21:20;;;;;;;1.03;1.00;;;;;;;5.06;100.00;95280.66;10414267;28;20227;-74
2023/01/14 22:26:20;;;;;;;1.63;1.23;;;;;;;5.07;100.00;95276.28;10415049;28;20196;-74
2023/01/14 22:31:21;;;;;;;1.10;1.00;;;;;;;5.23;100.00;95265.94;10397353;28;20188;-74
2023/01/14 22:36:21;;;;;;;2.23;1.00;;;;;;;5.31;100.00;95284.16;10414901;28;20181;-74
2023/01/14 22:41:21;;;;;;;0.93;0.93;;;;;;;5.33;100.00;95253.63;10414461;28;20258;-74
2023/01/14 22:46:22;;;;;;;1.10;0.93;;;;;;;5.26;100.00;95251.84;10424225;28;20778;-74
2023/01/14 22:51:22;;;;;;;1.60;1.10;;;;;;;5.22;100.00;95258.31;10414609;28;20195;-74
2023/01/14 22:56:23;;;;;;;1.40;0.93;;;;;;;5.13;100.00;95249.69;10413845;28;20189;-74
2023/01/14 23:01:23;;;;;;;3.03;1.10;;;;;;;5.12;100.00;95233.31;10412418;28;20224;-74
2023/01/14 23:06:23;;;;;;;1.63;0.90;;;;;;;5.14;100.00;95230.56;10414139;28;20192;-74
2023/01/14 23:11:24;;;;;;;1.10;1.00;;;;;;;5.18;100.00;95237.06;10413360;28;20212;-73
2023/01/14 23:27:07;;;;;;;2.47;0.90;;;;;;;5.23;100.00;95211.44;10412972;28;20201;-74
2023/01/14 23:32:08;;;;;;;1.23;1.00;;;;;;;5.27;100.00;95194.56;10395057;28;20196;-74
2023/01/14 23:37:08;;;;;;;2.50;1.07;;;;;;;5.13;100.00;95187.38;10412135;28;20214;-74
2023/01/14 23:42:09;;;;;;;1.17;0.90;;;;;;;5.33;100.00;95172.34;10412253;28;20232;-74
2023/01/14 23:47:09;;;;;;;0.80;0.80;;;;;;;5.42;100.00;95189.53;10411940;28;20724;-74
2023/01/14 23:52:09;;;;;;;0.90;0.90;;;;;;;5.58;100.00;95170.53;10411555;28;20188;-75
2023/01/14 23:57:11;;;;;;;1.73;1.00;;;;;;;5.57;100.00;95183.69;10411138;28;20196;-74
